バンコク/スワンナプーム の空港の天気 - METARとTAF

スワンナプーム国際空港 ( VTBS / BKK ) - タイ サムットプラーカーン県 (バンコク近郊)
飛行場実況気象(Metar)
観測時間05/27 18:30 ICT (05/27 11:30 UTC)
風向・風速南南西 5m/s
視程10km以上
天気現象
少しの雲 雲底高度 610m
全天の4割程度の雲 雲底高度 1520m
気温30℃
湿度66%
気圧1008hPa
METARVTBS 271130Z 21010KT 170V230 9999 FEW020 SCT050 30/23 Q1008 NOSIG
過去の天気等 Google飛行場航空写真 Wunderground天気予報

過去48時間のMETAR

飛行場予報(TAF)
発表時間: 5/27 18:00 ICT (5/27 11:00 UTC)
予報対象時間: 27日19時 ICT ~ 29日1時 ICT
風向・風速南 5m/s
視程10km以上
少しの雲 雲底高度 610m
28日1時 ICT ~ 28日3時 ICT に徐々に
風向・風速東 3m/s
28日8時 ICT ~ 28日10時 ICT に徐々に
風向・風速南東 3m/s
28日12時 ICT ~ 28日17時 ICT に一時的に
風向・風速不定 6m/s
視程5000m
天気現象雷雨
少しの積乱雲 雲底高度 550m
全天の4割程度の雲 雲底高度 910m
28日17時 ICT ~ 28日19時 ICT に徐々に
風向・風速南南西 5m/s
TAF VTBS 271100Z 2712/2818 18010KT 9999 FEW020
BECMG 2718/2720 08005KT
BECMG 2801/2803 14005KT
TEMPO 2805/2810 VRB12KT 5000 TSRA FEW018CB SCT030
BECMG 2810/2812 20010KT